createdAt,value
2022-11-07T00:02:15.832Z,5.20
2022-11-07T00:04:44.320Z,5.20
2022-11-07T00:07:12.670Z,5.20
2022-11-07T00:09:40.787Z,5.10
2022-11-07T00:12:09.441Z,5.20
2022-11-07T00:14:38.767Z,5.20
2022-11-07T00:17:08.730Z,5.20
2022-11-07T00:19:36.818Z,5.30
2022-11-07T00:22:05.032Z,5.20
2022-11-07T00:24:33.271Z,5.20
2022-11-07T00:27:01.441Z,5.30
2022-11-07T00:29:29.624Z,5.20
2022-11-07T00:31:59.685Z,5.20
2022-11-07T00:34:28.025Z,5.20
2022-11-07T00:36:56.048Z,5.20
2022-11-07T00:39:24.088Z,5.20
2022-11-07T00:41:52.061Z,5.30
2022-11-07T00:44:20.291Z,5.20
2022-11-07T00:46:48.425Z,5.20
2022-11-07T00:49:18.148Z,5.30
2022-11-07T00:51:46.425Z,5.50
2022-11-07T00:54:14.600Z,5.40
2022-11-07T00:56:42.950Z,5.40
2022-11-07T00:59:11.228Z,5.50
2022-11-07T01:01:40.590Z,5.40
2022-11-07T01:04:26.242Z,5.60
2022-11-07T01:06:55.617Z,5.40
2022-11-07T01:09:23.850Z,5.40
2022-11-07T01:11:52.152Z,5.30
2022-11-07T01:14:22.818Z,5.40
2022-11-07T01:16:51.755Z,5.10
2022-11-07T01:19:20.942Z,5.40
2022-11-07T01:21:49.266Z,5.40
2022-11-07T01:24:19.796Z,5.40
2022-11-07T01:26:48.877Z,5.60
2022-11-07T01:29:19.419Z,5.50
2022-11-07T01:31:48.740Z,5.60
2022-11-07T01:34:17.700Z,5.50
2022-11-07T01:36:46.513Z,5.60
2022-11-07T01:39:15.042Z,5.50
2022-11-07T01:41:44.473Z,5.50
2022-11-07T01:44:51.613Z,5.50
2022-11-07T01:47:20.803Z,5.50
2022-11-07T01:49:49.639Z,5.50
2022-11-07T01:52:24.429Z,5.50
2022-11-07T01:55:00.180Z,5.50
2022-11-07T01:57:38.047Z,5.50
2022-11-07T02:00:11.414Z,5.70
2022-11-07T02:02:40.982Z,5.80
2022-11-07T02:05:14.816Z,5.80
2022-11-07T02:07:43.881Z,5.80
2022-11-07T02:10:13.514Z,5.70
2022-11-07T02:12:44.639Z,5.70
2022-11-07T02:15:12.979Z,5.70
2022-11-07T02:17:41.546Z,5.80
2022-11-07T02:20:11.381Z,5.70
2022-11-07T02:22:50.700Z,5.80
2022-11-07T02:25:22.687Z,6.00
2022-11-07T02:27:56.679Z,6.00
2022-11-07T02:30:28.606Z,5.90
2022-11-07T02:32:56.931Z,5.90
2022-11-07T02:35:41.132Z,6.00
2022-11-07T02:38:16.933Z,6.00
2022-11-07T02:40:50.371Z,6.10
2022-11-07T02:43:23.208Z,6.10
2022-11-07T02:45:53.176Z,5.90
2022-11-07T02:48:22.157Z,5.90
2022-11-07T02:50:50.471Z,5.90
2022-11-07T02:53:18.711Z,5.90
2022-11-07T02:55:48.284Z,5.90
2022-11-07T02:58:18.085Z,5.90
2022-11-07T03:00:46.231Z,5.90
2022-11-07T03:03:15.443Z,5.90
2022-11-07T03:05:43.971Z,5.90
2022-11-07T03:08:12.315Z,5.90
2022-11-07T03:10:40.609Z,5.90
2022-11-07T03:13:10.298Z,6.00
2022-11-07T03:15:38.451Z,6.00
2022-11-07T03:18:06.756Z,6.00
2022-11-07T03:20:34.904Z,6.00
2022-11-07T03:23:03.154Z,5.90
2022-11-07T03:25:31.192Z,5.90
2022-11-07T03:27:59.328Z,5.90
2022-11-07T03:30:28.741Z,6.00
2022-11-07T03:32:57.119Z,6.20
2022-11-07T03:35:25.376Z,6.30
2022-11-07T03:37:53.364Z,6.40
2022-11-07T03:40:21.389Z,6.40
2022-11-07T03:42:49.512Z,6.40
2022-11-07T03:45:18.181Z,6.40
2022-11-07T03:47:48.628Z,6.40
2022-11-07T03:50:20.441Z,6.40
2022-11-07T03:52:49.776Z,6.40
2022-11-07T03:55:19.062Z,6.40
2022-11-07T03:57:47.918Z,6.50
2022-11-07T04:00:17.652Z,6.50
2022-11-07T04:02:47.412Z,6.40
2022-11-07T04:05:15.664Z,6.40
2022-11-07T04:07:43.628Z,6.30
2022-11-07T04:10:11.820Z,6.40
2022-11-07T04:12:57.495Z,6.50
2022-11-07T04:15:43.612Z,6.40
2022-11-07T04:18:12.993Z,6.50
2022-11-07T04:20:40.957Z,6.50
2022-11-07T04:23:09.039Z,6.60
2022-11-07T04:25:51.049Z,6.70
2022-11-07T04:28:19.065Z,6.70
2022-11-07T04:30:47.056Z,6.60
2022-11-07T04:33:16.720Z,6.70
2022-11-07T04:35:44.916Z,6.80
2022-11-07T04:38:12.947Z,6.80
2022-11-07T04:40:41.293Z,6.90
2022-11-07T04:43:10.713Z,7.00
2022-11-07T04:45:39.404Z,7.00
2022-11-07T04:48:08.537Z,7.20
2022-11-07T04:50:37.921Z,7.20
2022-11-07T04:53:06.307Z,7.30
2022-11-07T04:55:34.362Z,7.40
2022-11-07T04:58:02.515Z,7.40
2022-11-07T05:00:30.958Z,7.40
2022-11-07T05:02:59.015Z,7.40
2022-11-07T05:05:27.536Z,7.40
2022-11-07T05:07:56.968Z,7.50
2022-11-07T05:10:28.618Z,7.50
2022-11-07T05:12:57.497Z,7.50
2022-11-07T05:15:25.700Z,7.60
2022-11-07T05:17:53.712Z,7.50
2022-11-07T05:20:31.522Z,7.50
2022-11-07T05:23:15.588Z,7.60
2022-11-07T05:25:46.586Z,7.70
2022-11-07T05:28:18.461Z,7.90
2022-11-07T05:30:48.796Z,7.80
2022-11-07T05:33:19.231Z,7.80
2022-11-07T05:35:47.785Z,7.90
2022-11-07T05:38:17.090Z,8.10
2022-11-07T05:40:45.060Z,8.00
2022-11-07T05:43:16.453Z,8.00
2022-11-07T05:45:44.873Z,8.10
2022-11-07T05:48:15.227Z,8.10
2022-11-07T05:50:43.364Z,8.10
2022-11-07T05:53:11.574Z,8.10
2022-11-07T05:55:41.058Z,8.00
2022-11-07T05:58:11.518Z,8.00
2022-11-07T06:00:39.799Z,8.10
2022-11-07T06:03:10.248Z,8.10
2022-11-07T06:05:40.096Z,8.20
2022-11-07T06:08:10.361Z,8.10
2022-11-07T06:10:40.534Z,8.10
2022-11-07T06:13:12.832Z,8.20
2022-11-07T06:15:42.496Z,8.20
2022-11-07T06:18:16.058Z,8.20
2022-11-07T06:20:44.190Z,8.20
2022-11-07T06:23:13.692Z,8.10
2022-11-07T06:25:43.610Z,8.10
2022-11-07T06:28:14.047Z,8.20
2022-11-07T06:30:42.798Z,8.20
2022-11-07T06:33:15.085Z,8.20
2022-11-07T06:35:43.666Z,8.40
2022-11-07T06:38:14.794Z,8.30
2022-11-07T06:40:44.764Z,8.40
2022-11-07T06:43:16.184Z,8.30
2022-11-07T06:45:46.448Z,8.30
2022-11-07T06:48:15.217Z,8.50
2022-11-07T06:50:43.358Z,8.50
2022-11-07T06:53:14.826Z,8.50
2022-11-07T06:55:44.546Z,8.50
2022-11-07T06:58:12.571Z,8.40
2022-11-07T07:00:40.715Z,8.50
2022-11-07T07:03:08.869Z,8.50
2022-11-07T07:05:37.177Z,8.60
2022-11-07T07:08:07.461Z,8.60
2022-11-07T07:10:40.192Z,8.50
2022-11-07T07:13:09.642Z,8.60
2022-11-07T07:15:50.427Z,8.50
2022-11-07T07:18:19.358Z,8.50
2022-11-07T07:20:47.614Z,8.50
2022-11-07T07:23:15.660Z,8.60
2022-11-07T07:25:43.743Z,8.60
2022-11-07T07:28:13.150Z,8.70
2022-11-07T07:30:41.199Z,8.80
2022-11-07T07:33:09.183Z,8.70
2022-11-07T07:35:37.293Z,8.70
2022-11-07T07:38:05.327Z,8.90
2022-11-07T07:40:33.305Z,8.90
2022-11-07T07:43:01.301Z,8.90
2022-11-07T07:45:30.629Z,8.90
2022-11-07T07:48:02.518Z,9.00
2022-11-07T07:50:30.642Z,9.00
2022-11-07T07:52:59.108Z,9.00
2022-11-07T07:55:27.285Z,9.00
2022-11-07T07:57:55.314Z,9.10
2022-11-07T08:00:23.592Z,9.00
2022-11-07T08:02:52.896Z,9.20
2022-11-07T08:05:20.886Z,9.10
2022-11-07T08:07:51.561Z,9.20
2022-11-07T08:10:40.932Z,10.10
2022-11-07T08:13:08.727Z,9.20
2022-11-07T08:15:36.731Z,9.30
2022-11-07T08:18:06.356Z,9.40
2022-11-07T08:20:34.403Z,9.40
2022-11-07T08:23:05.033Z,9.40
2022-11-07T08:25:33.830Z,9.60
2022-11-07T08:28:01.978Z,9.50
2022-11-07T08:30:31.736Z,9.60
2022-11-07T08:33:03.066Z,9.60
2022-11-07T08:35:35.808Z,9.70
2022-11-07T08:38:07.890Z,9.60
2022-11-07T08:40:35.997Z,9.70
2022-11-07T08:43:04.051Z,9.70
2022-11-07T08:45:32.110Z,9.90
2022-11-07T08:48:00.690Z,10.00
2022-11-07T08:50:28.809Z,10.10
2022-11-07T08:53:02.779Z,10.20
2022-11-07T08:55:31.519Z,10.10
2022-11-07T08:58:00.848Z,10.10
2022-11-07T09:00:29.735Z,10.00
2022-11-07T09:03:24.354Z,10.10
2022-11-07T09:05:45.910Z,10.00
2022-11-07T09:08:15.295Z,10.10
2022-11-07T09:10:43.428Z,10.20
2022-11-07T09:13:11.616Z,10.10
2022-11-07T09:15:39.660Z,10.00
2022-11-07T09:18:08.611Z,10.10
2022-11-07T09:20:38.138Z,10.20
2022-11-07T09:23:06.153Z,10.10
2022-11-07T09:25:35.522Z,10.10
2022-11-07T09:28:04.983Z,10.10
2022-11-07T09:30:33.491Z,10.30
2022-11-07T09:33:02.008Z,10.40
2022-11-07T09:35:30.175Z,10.50
2022-11-07T09:37:58.412Z,10.60
2022-11-07T09:40:42.759Z,10.50
2022-11-07T09:43:39.687Z,10.60
2022-11-07T09:46:22.105Z,10.80
2022-11-07T09:48:57.065Z,10.80
2022-11-07T09:51:35.532Z,10.90
2022-11-07T09:54:12.441Z,10.80
2022-11-07T09:56:44.765Z,11.00
2022-11-07T09:59:25.508Z,11.00
2022-11-07T10:01:53.689Z,11.20
2022-11-07T10:04:26.256Z,11.30
2022-11-07T10:07:01.016Z,11.30
2022-11-07T10:09:45.730Z,11.40
2022-11-07T10:12:44.076Z,11.50
2022-11-07T10:15:24.088Z,11.50
2022-11-07T10:18:03.189Z,11.60
2022-11-07T10:20:47.587Z,11.70
2022-11-07T10:23:42.242Z,11.80
2022-11-07T10:26:12.777Z,11.90
2022-11-07T10:28:48.151Z,12.10
2022-11-07T10:31:17.262Z,12.10
2022-11-07T10:33:54.234Z,12.00
2022-11-07T10:36:27.041Z,11.80
2022-11-07T10:38:55.674Z,11.90
2022-11-07T10:41:26.634Z,11.90
2022-11-07T10:44:03.373Z,11.90
2022-11-07T10:46:41.474Z,12.10
2022-11-07T10:49:21.573Z,12.10
2022-11-07T10:51:50.934Z,12.20
2022-11-07T10:54:29.030Z,12.20
2022-11-07T10:57:06.501Z,12.20
2022-11-07T10:59:41.052Z,12.20
2022-11-07T11:02:21.958Z,12.20
2022-11-07T11:04:54.026Z,12.30
2022-11-07T11:07:28.340Z,12.30
2022-11-07T11:09:58.661Z,12.30
2022-11-07T11:12:32.154Z,12.30
2022-11-07T11:15:14.035Z,12.40
2022-11-07T11:17:42.276Z,12.60
2022-11-07T11:20:32.630Z,12.70
2022-11-07T11:23:02.567Z,12.60
2022-11-07T11:25:30.655Z,12.60
2022-11-07T11:28:06.487Z,12.60
2022-11-07T11:30:38.102Z,12.70
2022-11-07T11:33:15.139Z,12.80
2022-11-07T11:35:50.339Z,12.90
2022-11-07T11:38:25.395Z,12.80
2022-11-07T11:41:06.044Z,12.80
2022-11-07T11:43:48.889Z,12.90
2022-11-07T11:46:33.879Z,13.10
2022-11-07T11:49:13.080Z,13.10
2022-11-07T11:51:47.127Z,13.10
2022-11-07T11:54:17.132Z,13.30
2022-11-07T11:56:54.161Z,13.50
2022-11-07T12:00:02.545Z,13.60
2022-11-07T12:03:11.741Z,13.80
2022-11-07T12:06:10.731Z,13.70
2022-11-07T12:09:01.738Z,13.50
2022-11-07T12:11:40.670Z,13.60
2022-11-07T12:14:39.946Z,13.60
2022-11-07T12:17:20.046Z,13.60
2022-11-07T12:19:59.843Z,13.60
2022-11-07T12:22:44.962Z,13.70
2022-11-07T12:25:24.829Z,13.90
2022-11-07T12:28:11.220Z,14.00
2022-11-07T12:30:55.717Z,14.00
2022-11-07T12:33:36.800Z,13.90
2022-11-07T12:36:20.828Z,13.80
2022-11-07T12:39:20.378Z,13.90
2022-11-07T12:41:58.691Z,14.10
2022-11-07T12:45:00.459Z,14.10
2022-11-07T12:47:53.467Z,14.20
2022-11-07T12:50:40.452Z,14.20
2022-11-07T12:53:27.236Z,14.20
2022-11-07T12:56:03.160Z,14.20
2022-11-07T12:58:34.529Z,14.30
2022-11-07T13:01:06.349Z,14.00
2022-11-07T13:04:06.366Z,13.80
2022-11-07T13:06:43.304Z,13.80
2022-11-07T13:09:25.692Z,13.80
2022-11-07T13:12:06.361Z,13.80
2022-11-07T13:14:39.322Z,14.00
2022-11-07T13:17:21.060Z,14.20
2022-11-07T13:20:01.841Z,14.30
2022-11-07T13:22:36.583Z,14.20
2022-11-07T13:25:29.346Z,14.10
2022-11-07T13:28:26.951Z,14.10
2022-11-07T13:31:02.444Z,14.00
2022-11-07T13:33:37.246Z,14.00
2022-11-07T13:36:26.051Z,13.80
2022-11-07T13:39:00.492Z,14.00
2022-11-07T13:41:31.814Z,14.10
2022-11-07T13:44:03.864Z,14.40
2022-11-07T13:46:36.666Z,14.70
2022-11-07T13:49:16.910Z,14.70
2022-11-07T13:51:49.536Z,14.40
2022-11-07T13:54:27.345Z,14.20
2022-11-07T13:57:02.748Z,13.90
2022-11-07T13:59:43.734Z,13.50
2022-11-07T14:02:22.628Z,13.50
2022-11-07T14:05:15.478Z,13.50
2022-11-07T14:07:44.916Z,13.40
2022-11-07T14:10:31.855Z,13.30
2022-11-07T14:13:08.165Z,13.30
2022-11-07T14:15:37.936Z,13.20
2022-11-07T14:18:06.990Z,13.20
2022-11-07T14:20:35.029Z,13.10
2022-11-07T14:23:03.064Z,13.10
2022-11-07T14:25:33.814Z,13.10
2022-11-07T14:28:07.294Z,13.00
2022-11-07T14:30:40.943Z,13.00
2022-11-07T14:33:19.517Z,13.10
2022-11-07T14:35:51.144Z,13.10
2022-11-07T14:38:25.156Z,12.90
2022-11-07T14:40:56.345Z,13.00
2022-11-07T14:43:28.818Z,12.90
2022-11-07T14:46:14.556Z,13.00
2022-11-07T14:48:45.841Z,12.80
2022-11-07T14:51:18.583Z,12.80
2022-11-07T14:53:56.643Z,12.80
2022-11-07T14:56:30.849Z,12.70
2022-11-07T14:59:00.834Z,12.70
2022-11-07T15:01:33.493Z,12.60
2022-11-07T15:04:05.517Z,12.60
2022-11-07T15:06:44.125Z,12.60
2022-11-07T15:09:13.031Z,12.50
2022-11-07T15:11:44.890Z,12.50
2022-11-07T15:14:30.222Z,12.50
2022-11-07T15:16:58.509Z,12.30
2022-11-07T15:19:26.541Z,12.20
2022-11-07T15:21:58.268Z,12.10
2022-11-07T15:24:35.772Z,12.20
2022-11-07T15:27:07.059Z,12.00
2022-11-07T15:29:37.509Z,12.00
2022-11-07T15:32:16.358Z,12.00
2022-11-07T15:35:03.694Z,12.00
2022-11-07T15:37:32.885Z,11.90
2022-11-07T15:40:01.035Z,11.90
2022-11-07T15:42:29.043Z,11.80
2022-11-07T15:44:58.445Z,11.80
2022-11-07T15:47:26.489Z,11.80
2022-11-07T15:49:54.508Z,11.80
2022-11-07T15:52:22.535Z,11.90
2022-11-07T15:54:50.619Z,11.90
2022-11-07T15:57:20.613Z,12.00
2022-11-07T15:59:48.879Z,12.10
2022-11-07T16:02:19.351Z,12.00
2022-11-07T16:04:47.562Z,12.10
2022-11-07T16:07:19.684Z,12.00
2022-11-07T16:09:48.904Z,12.00
2022-11-07T16:12:19.595Z,12.10
2022-11-07T16:14:47.874Z,12.00
2022-11-07T16:17:19.649Z,11.90
2022-11-07T16:19:47.802Z,12.00
2022-11-07T16:22:17.284Z,12.00
2022-11-07T16:24:45.277Z,12.00
2022-11-07T16:27:18.286Z,11.90
2022-11-07T16:29:46.651Z,11.90
2022-11-07T16:32:18.387Z,12.00
2022-11-07T16:34:48.632Z,12.10
2022-11-07T16:37:16.641Z,12.00
2022-11-07T16:39:44.693Z,12.00
2022-11-07T16:42:16.353Z,12.00
2022-11-07T16:44:44.927Z,12.10
2022-11-07T16:47:17.172Z,12.10
2022-11-07T16:49:45.561Z,12.20
2022-11-07T16:52:17.398Z,12.20
2022-11-07T16:54:46.858Z,12.20
2022-11-07T16:57:17.679Z,12.30
2022-11-07T16:59:47.487Z,12.40
2022-11-07T17:02:22.666Z,12.40
2022-11-07T17:04:52.930Z,12.40
2022-11-07T17:07:24.631Z,12.50
2022-11-07T17:09:53.123Z,12.40
2022-11-07T17:12:24.072Z,12.30
2022-11-07T17:14:52.626Z,12.30
2022-11-07T17:17:22.623Z,12.40
2022-11-07T17:19:50.947Z,12.40
2022-11-07T17:22:19.964Z,12.30
2022-11-07T17:24:49.679Z,12.20
2022-11-07T17:27:24.669Z,12.20
2022-11-07T17:29:54.345Z,12.10
2022-11-07T17:32:22.450Z,12.10
2022-11-07T17:35:11.033Z,11.90
2022-11-07T17:37:39.451Z,12.00
2022-11-07T17:40:18.642Z,12.10
2022-11-07T17:42:46.703Z,12.00
2022-11-07T17:45:15.311Z,11.90
2022-11-07T17:47:43.429Z,11.90
2022-11-07T17:50:15.907Z,11.90
2022-11-07T17:52:44.028Z,11.90
2022-11-07T17:55:13.922Z,11.80
2022-11-07T17:57:43.362Z,11.80
2022-11-07T18:00:19.875Z,11.90
2022-11-07T18:02:52.151Z,11.80
2022-11-07T18:05:24.067Z,11.90
2022-11-07T18:07:53.714Z,11.70
2022-11-07T18:10:23.082Z,11.50
2022-11-07T18:12:51.083Z,11.60
2022-11-07T18:15:19.258Z,11.60
2022-11-07T18:17:47.300Z,11.50
2022-11-07T18:20:15.321Z,11.60
2022-11-07T18:22:43.315Z,11.60
2022-11-07T18:25:11.369Z,11.50
2022-11-07T18:27:40.805Z,11.60
2022-11-07T18:30:11.090Z,11.60
2022-11-07T18:32:39.204Z,11.70
2022-11-07T18:35:07.695Z,11.70
2022-11-07T18:37:36.184Z,11.70
2022-11-07T18:40:04.730Z,11.70
2022-11-07T18:42:32.748Z,11.70
2022-11-07T18:45:03.173Z,11.90
2022-11-07T18:47:31.891Z,12.00
2022-11-07T18:49:59.929Z,12.00
2022-11-07T18:52:30.726Z,12.00
2022-11-07T18:54:58.878Z,12.00
2022-11-07T18:57:26.923Z,12.00
2022-11-07T18:59:54.913Z,12.10
2022-11-07T19:02:24.529Z,12.20
2022-11-07T19:04:52.705Z,12.20
2022-11-07T19:07:20.864Z,12.30
2022-11-07T19:09:48.933Z,12.20
2022-11-07T19:12:16.907Z,12.30
2022-11-07T19:14:44.928Z,12.30
2022-11-07T19:17:13.057Z,12.20
2022-11-07T19:19:42.430Z,12.10
2022-11-07T19:22:13.722Z,12.20
2022-11-07T19:24:41.766Z,12.30
2022-11-07T19:27:09.999Z,12.30
2022-11-07T19:29:38.337Z,12.20
2022-11-07T19:32:07.294Z,12.20
2022-11-07T19:34:36.112Z,12.20
2022-11-07T19:37:06.220Z,12.20
2022-11-07T19:39:36.529Z,12.20
2022-11-07T19:42:05.397Z,12.20
2022-11-07T19:44:36.404Z,12.10
2022-11-07T19:47:04.772Z,12.10
2022-11-07T19:49:33.052Z,12.10
2022-11-07T19:52:01.334Z,12.10
2022-11-07T19:54:31.001Z,12.30
2022-11-07T19:56:59.248Z,12.20
2022-11-07T19:59:27.475Z,12.20
2022-11-07T20:02:26.082Z,12.30
2022-11-07T20:04:43.931Z,12.20
2022-11-07T20:07:12.029Z,12.10
2022-11-07T20:09:41.853Z,12.20
2022-11-07T20:12:10.562Z,12.20
2022-11-07T20:14:39.612Z,12.30
2022-11-07T20:17:07.741Z,12.20
2022-11-07T20:19:35.848Z,12.30
2022-11-07T20:22:03.905Z,12.30
2022-11-07T20:24:32.132Z,12.30
2022-11-07T20:27:01.746Z,12.20
2022-11-07T20:29:29.846Z,12.20
2022-11-07T20:31:57.891Z,12.20
2022-11-07T20:34:25.917Z,12.30
2022-11-07T20:36:55.532Z,12.20
2022-11-07T20:39:23.502Z,12.10
2022-11-07T20:41:51.528Z,12.20
2022-11-07T20:44:22.813Z,12.10
2022-11-07T20:46:51.782Z,12.10
2022-11-07T20:49:21.151Z,12.10
2022-11-07T20:51:49.210Z,12.20
2022-11-07T20:54:17.648Z,12.20
2022-11-07T20:56:45.831Z,12.20
2022-11-07T20:59:13.935Z,12.10
2022-11-07T21:01:43.401Z,12.30
2022-11-07T21:04:15.714Z,12.20
2022-11-07T21:06:44.225Z,12.20
2022-11-07T21:09:14.899Z,12.00
2022-11-07T21:11:43.153Z,12.20
2022-11-07T21:14:11.501Z,12.20
2022-11-07T21:16:39.523Z,12.20
2022-11-07T21:19:09.408Z,12.20
2022-11-07T21:21:37.530Z,12.10
2022-11-07T21:24:06.265Z,12.20
2022-11-07T21:26:38.890Z,12.20
2022-11-07T21:29:11.037Z,12.10
2022-11-07T21:31:41.225Z,12.10
2022-11-07T21:34:11.786Z,12.10
2022-11-07T21:36:40.423Z,12.20
2022-11-07T21:39:08.809Z,12.20
2022-11-07T21:41:38.323Z,12.10
2022-11-07T21:44:06.763Z,12.20
2022-11-07T21:46:35.317Z,12.20
2022-11-07T21:49:04.880Z,12.10
2022-11-07T21:51:36.193Z,12.10
2022-11-07T21:54:07.065Z,12.10
2022-11-07T21:56:38.809Z,12.20
2022-11-07T21:59:10.267Z,12.20
2022-11-07T22:01:39.961Z,12.20
2022-11-07T22:04:12.529Z,12.20
2022-11-07T22:06:45.469Z,12.10
2022-11-07T22:09:16.870Z,12.10
2022-11-07T22:11:45.730Z,12.10
2022-11-07T22:14:17.301Z,12.00
2022-11-07T22:16:46.059Z,12.10
2022-11-07T22:19:14.525Z,12.10
2022-11-07T22:21:44.593Z,12.00
2022-11-07T22:24:12.849Z,11.90
2022-11-07T22:26:41.192Z,12.00
2022-11-07T22:29:09.744Z,11.90
2022-11-07T22:31:37.984Z,11.90
2022-11-07T22:34:06.194Z,11.90
2022-11-07T22:36:34.466Z,12.00
2022-11-07T22:39:03.845Z,11.90
2022-11-07T22:41:31.889Z,12.00
2022-11-07T22:44:00.516Z,12.00
2022-11-07T22:46:31.250Z,12.00
2022-11-07T22:49:00.862Z,11.80
2022-11-07T22:51:32.500Z,11.80
2022-11-07T22:54:05.595Z,11.90
2022-11-07T22:56:35.164Z,12.00
2022-11-07T22:59:03.853Z,11.90
2022-11-07T23:01:35.075Z,12.00
2022-11-07T23:04:04.044Z,12.10
2022-11-07T23:06:32.243Z,12.00
2022-11-07T23:09:03.015Z,11.90
2022-11-07T23:11:49.357Z,11.80
2022-11-07T23:14:20.694Z,11.70
2022-11-07T23:16:51.743Z,11.90
2022-11-07T23:19:23.297Z,11.80
2022-11-07T23:21:52.833Z,11.80
2022-11-07T23:24:22.626Z,11.70
2022-11-07T23:26:50.782Z,11.70
2022-11-07T23:29:22.879Z,11.70
2022-11-07T23:31:52.772Z,11.80
2022-11-07T23:34:23.005Z,11.70
2022-11-07T23:36:52.689Z,11.60
2022-11-07T23:39:25.903Z,11.50
2022-11-07T23:41:53.953Z,11.50
2022-11-07T23:44:22.536Z,11.50
2022-11-07T23:47:08.109Z,11.50
2022-11-07T23:49:50.035Z,11.40
2022-11-07T23:52:19.099Z,11.40
2022-11-07T23:55:06.596Z,11.40
2022-11-07T23:57:57.045Z,11.40
